Time;durP1;ratioP1;P1;durP2;ratioP2;P2;SDS_P1;SDS_P2;PMS_P1;PMS_P2;Temp;Humidity;BMP_temperature;BMP_pressure;BME280_temperature;BME280_humidity;BME280_pressure;Samples;Min_cycle;Max_cycle;Signal;HPM_P1;HPM_P2
2022/09/01 00:01:19;;;;;;;18.73;15.50;;;538.40;2406.40;;;;;;5039593;28;20036;-78
2022/09/01 00:03:51;;;;;;;18.27;16.30;;;538.30;2406.40;;;;;;5039106;28;20032;-79
2022/09/01 00:06:21;;;;;;;21.92;17.15;;;538.40;2406.40;;;;;;5036803;28;20025;-79
2022/09/01 00:08:50;;;;;;;18.65;16.48;;;538.40;2406.40;;;;;;5041817;28;20060;-79
2022/09/01 00:11:15;;;;;;;19.08;16.15;;;538.30;2406.40;;;;;;5039038;28;21875;-79
2022/09/01 00:13:41;;;;;;;25.05;17.27;;;538.00;2406.40;;;;;;5034368;28;20048;-79
2022/09/01 00:16:08;;;;;;;18.77;16.77;;;538.10;2406.40;;;;;;5071977;28;20045;-79
2022/09/01 00:18:34;;;;;;;21.50;18.52;;;538.20;2406.40;;;;;;5041155;28;20048;-79
2022/09/01 00:21:01;;;;;;;25.77;18.88;;;538.20;2406.40;;;;;;5033585;28;20376;-79
2022/09/01 00:23:28;;;;;;;21.55;19.27;;;538.20;2406.40;;;;;;5040775;28;20479;-79
2022/09/01 00:25:54;;;;;;;22.00;18.85;;;538.10;2406.40;;;;;;5031006;28;20144;-80
2022/09/01 00:28:20;;;;;;;26.30;17.45;;;538.20;2406.40;;;;;;5033449;28;20053;-79
2022/09/01 00:30:46;;;;;;;21.88;19.38;;;538.30;2406.40;;;;;;5044812;28;20111;-80
2022/09/01 00:33:12;;;;;;;22.90;19.83;;;538.10;2406.40;;;;;;5030093;28;20038;-79
2022/09/01 00:35:38;;;;;;;25.10;20.92;;;537.90;2406.40;;;;;;5033131;28;20050;-79
2022/09/01 00:38:04;;;;;;;21.13;18.85;;;512.90;2380.80;;;;;;5035241;28;20488;-80
2022/09/01 00:40:29;;;;;;;20.92;18.38;;;537.70;2406.40;;;;;;5033344;28;20033;-80
2022/09/01 00:42:55;;;;;;;21.98;18.63;;;537.80;2406.40;;;;;;5036224;28;20432;-80
2022/09/01 00:45:21;;;;;;;18.52;16.65;;;537.60;2406.40;;;;;;5033851;28;20025;-79
2022/09/01 00:47:48;;;;;;;20.85;18.63;;;537.70;2406.40;;;;;;5034840;28;20026;-80
2022/09/01 00:50:16;;;;;;;20.20;17.95;;;537.80;2406.40;;;;;;5064408;28;20116;-79
2022/09/01 00:52:50;;;;;;;22.35;17.17;;;537.90;2406.40;;;;;;5035332;28;20077;-78
2022/09/01 00:55:30;;;;;;;20.80;18.70;;;537.70;2406.40;;;;;;5039778;28;20049;-79
2022/09/01 00:57:59;;;;;;;19.33;17.27;;;512.90;2380.80;;;;;;5040659;28;20478;-80
2022/09/01 01:00:29;;;;;;;22.77;18.48;;;537.60;2406.40;;;;;;5053929;28;20032;-80
2022/09/01 01:02:56;;;;;;;22.85;18.95;;;512.90;2380.80;;;;;;5052131;28;20036;-79
2022/09/01 01:05:26;;;;;;;19.90;17.83;;;512.60;2380.80;;;;;;5038352;28;20030;-79
2022/09/01 01:07:54;;;;;;;20.35;16.65;;;512.90;2380.80;;;;;;5042267;28;20163;-79
2022/09/01 01:10:23;;;;;;;19.90;17.92;;;512.90;2380.80;;;;;;5040093;28;20401;-79
2022/09/01 01:12:50;;;;;;;21.67;17.73;;;537.60;2406.40;;;;;;5040680;28;20036;-79
2022/09/01 01:15:17;;;;;;;22.50;19.33;;;537.60;2406.40;;;;;;5066852;28;20120;-79
2022/09/01 01:17:44;;;;;;;23.40;21.10;;;512.90;2380.80;;;;;;5039800;28;20036;-79
2022/09/01 01:23:04;;;;;;;24.10;19.67;;;512.70;2380.80;;;;;;5039837;28;20032;-79
2022/09/01 01:25:47;;;;;;;27.25;21.42;;;512.90;2380.80;;;;;;5039474;28;20083;-79
2022/09/01 01:28:21;;;;;;;21.80;19.58;;;512.80;2380.80;;;;;;5036196;28;20033;-79
2022/09/01 01:30:53;;;;;;;29.08;22.45;;;512.90;2380.80;;;;;;5071111;28;20036;-79
2022/09/01 01:33:21;;;;;;;;;;;512.70;2380.80;;;;;;5043735;28;20041;-79
2022/09/01 01:35:50;;;;;;;37.25;25.50;;;512.90;2380.80;;;;;;5035947;28;20449;-80
2022/09/01 01:38:19;;;;;;;34.05;26.70;;;512.80;2380.80;;;;;;5040223;28;20111;-79
2022/09/01 01:40:45;;;;;;;40.00;26.00;;;;;;;;;;5072253;28;20029;-79
2022/09/01 01:43:18;;;;;;;36.72;26.77;;;;;;;;;;5036319;28;20059;-79
2022/09/01 01:45:47;;;;;;;35.30;26.10;;;;;;;;;;5036032;28;20018;-79
2022/09/01 01:48:17;;;;;;;30.05;24.10;;;;;;;;;;5038100;28;20111;-79
2022/09/01 01:50:44;;;;;;;35.15;24.27;;;;;;;;;;5034621;28;20486;-79
2022/09/01 01:53:12;;;;;;;26.95;22.80;;;;;;;;;;5035390;28;20083;-79
2022/09/01 01:55:40;;;;;;;29.73;22.75;;;;;;;;;;5035409;28;20036;-78
2022/09/01 01:58:06;;;;;;;27.63;21.75;;;;;;;;;;5039090;28;20017;-80
2022/09/01 02:00:33;;;;;;;26.73;22.88;;;;;;;;;;5035452;28;20109;-80
2022/09/01 02:02:59;;;;;;;26.70;22.85;;;;;;;;;;5037292;28;20481;-79
2022/09/01 02:05:27;;;;;;;29.23;23.75;;;;;;;;;;5036421;28;20017;-79
2022/09/01 02:07:54;;;;;;;27.30;23.02;;;;;;;;;;5041575;28;20021;-80
2022/09/01 02:10:24;;;;;;;29.35;23.63;;;;;;;;;;5034472;28;20100;-79
2022/09/01 02:12:50;;;;;;;24.30;21.55;;;;;;;;;;5036678;28;20030;-79
2022/09/01 02:15:16;;;;;;;26.27;22.25;;;;;;;;;;5037039;28;20028;-79
2022/09/01 02:17:44;;;;;;;25.02;20.00;;;;;;;;;;5039456;28;20032;-78
2022/09/01 02:20:11;;;;;;;23.75;21.27;;;;;;;;;;5038897;28;20040;-80
2022/09/01 02:22:38;;;;;;;22.92;20.58;;;;;;;;;;5037856;28;20024;-79
2022/09/01 02:25:05;;;;;;;24.60;22.05;;;;;;;;;;5035054;28;20035;-79
2022/09/01 02:27:34;;;;;;;23.20;20.83;;;;;;;;;;5032853;28;20135;-79
2022/09/01 02:30:00;;;;;;;27.65;24.27;;;;;;;;;;5038586;28;20021;-78
2022/09/01 02:32:27;;;;;;;27.75;24.05;;;;;;;;;;5038895;28;20017;-79
2022/09/01 02:34:53;;;;;;;29.83;24.05;;;;;;;;;;5035724;28;20107;-79
2022/09/01 02:37:24;;;;;;;33.88;25.88;;;;;;;;;;5032386;28;20075;-79
2022/09/01 02:39:52;;;;;;;33.10;24.48;;;;;;;;;;5031879;28;20021;-80
2022/09/01 02:42:25;;;;;;;30.10;24.35;;;;;;;;;;5037961;28;20025;-79
2022/09/01 02:44:52;;;;;;;36.30;26.13;;;;;;;;;;5034868;28;20817;-79
2022/09/01 02:47:18;;;;;;;31.95;24.92;;;512.10;2380.80;;;;;;5038516;28;20080;-79
2022/09/01 02:49:45;;;;;;;29.33;24.42;;;512.10;2380.80;;;;;;5034581;28;20068;-79
2022/09/01 02:52:14;;;;;;;30.95;25.48;;;512.10;2380.80;;;;;;5037531;28;20061;-80
2022/09/01 02:54:44;;;;;;;30.92;25.20;;;512.20;2380.80;;;;;;5070970;28;20036;-79
2022/09/01 02:57:11;;;;;;;31.92;25.42;;;512.30;2380.80;;;;;;5036688;28;20029;-79
2022/09/01 02:59:37;;;;;;;31.40;26.60;;;512.30;2380.80;;;;;;5069403;28;20141;-79
2022/09/01 03:02:05;;;;;;;31.10;25.40;;;512.30;2380.80;;;;;;5039171;28;20544;-79
2022/09/01 03:04:33;;;;;;;35.20;25.15;;;512.60;2380.80;;;;;;5037599;28;20072;-78
2022/09/01 03:07:00;;;;;;;28.20;24.92;;;512.40;2380.80;;;;;;5037172;28;20052;-79
2022/09/01 03:09:26;;;;;;;27.67;23.50;;;512.40;2380.80;;;;;;5037316;28;20094;-79
2022/09/01 03:11:53;;;;;;;29.98;24.73;;;512.40;2380.80;;;;;;5068596;28;20096;-78
2022/09/01 03:14:20;;;;;;;28.77;24.60;;;512.40;2380.80;;;;;;5068076;28;20483;-78
2022/09/01 03:16:46;;;;;;;27.90;24.52;;;512.40;2380.80;;;;;;5064909;28;20025;-77
2022/09/01 03:19:13;;;;;;;32.13;25.00;;;512.30;2380.80;;;;;;5035241;28;20044;-77
2022/09/01 03:21:41;;;;;;;29.25;25.67;;;512.20;2380.80;;;;;;5034748;28;20043;-77
2022/09/01 03:24:09;;;;;;;34.70;25.80;;;512.20;2380.80;;;;;;5065261;28;20025;-78
2022/09/01 03:26:35;;;;;;;28.77;25.35;;;512.20;2380.80;;;;;;5036067;28;20095;-78
2022/09/01 03:29:02;;;;;;;30.30;24.83;;;512.20;2380.80;;;;;;5034355;28;20022;-77
2022/09/01 03:31:29;;;;;;;36.65;27.65;;;512.40;2380.80;;;;;;5065644;28;20498;-77
2022/09/01 03:33:55;;;;;;;31.88;26.45;;;512.20;2380.80;;;;;;5031461;28;20033;-77
2022/09/01 03:36:23;;;;;;;33.53;27.42;;;512.20;2380.80;;;;;;5037697;28;20095;-77
2022/09/01 03:38:50;;;;;;;30.63;25.00;;;487.30;2380.80;;;;;;5046678;28;20116;-78
2022/09/01 03:41:21;;;;;;;28.80;23.02;;;512.00;2380.80;;;;;;5047801;28;20025;-78
2022/09/01 03:43:47;;;;;;;26.67;23.02;;;512.00;2380.80;;;;;;5066766;28;20040;-77
2022/09/01 03:46:21;;;;;;;28.15;24.92;;;512.20;2380.80;;;;;;5044756;28;20484;-78
2022/09/01 03:48:53;;;;;;;27.48;23.65;;;512.20;2380.80;;;;;;5066191;28;20057;-78
2022/09/01 03:51:21;;;;;;;33.97;26.48;;;512.00;2380.80;;;;;;5067429;28;20151;-78
2022/09/01 03:53:48;;;;;;;32.08;24.83;;;487.30;2380.80;;;;;;5032981;28;20037;-78
2022/09/01 03:56:14;;;;;;;34.97;27.52;;;512.10;2380.80;;;;;;5034161;28;20025;-78
2022/09/01 03:58:43;;;;;;;36.08;26.40;;;487.30;2380.80;;;;;;5032659;28;20032;-78
2022/09/01 04:01:11;;;;;;;39.17;27.55;;;512.00;2380.80;;;;;;5032931;28;20108;-78
2022/09/01 04:03:39;;;;;;;40.20;27.40;;;487.30;2380.80;;;;;;5032275;28;20033;-78
2022/09/01 04:06:08;;;;;;;49.92;29.58;;;487.30;2380.80;;;;;;5065598;28;20032;-77
2022/09/01 04:08:34;;;;;;;39.22;26.80;;;512.00;2380.80;;;;;;5066611;28;20454;-78
2022/09/01 04:11:09;;;;;;;35.80;28.10;;;487.00;2380.80;;;;;;5035265;28;20026;-78
2022/09/01 04:13:38;;;;;;;37.65;25.80;;;487.30;2380.80;;;;;;5040681;28;20291;-78
2022/09/01 04:18:03;;;;;;;34.78;25.17;;;487.20;2380.80;;;;;;5034339;28;20060;-78
2022/09/01 04:18:56;;;;;;;;;;;487.10;2380.80;;;;;;5038147;28;20469;-78
2022/09/01 04:21:22;;;;;;;46.17;29.85;;;487.30;2380.80;;;;;;5032373;28;20001;-77
2022/09/01 04:23:48;;;;;;;36.63;27.88;;;512.00;2380.80;;;;;;5034075;28;20083;-77
2022/09/01 04:26:19;;;;;;;37.05;27.73;;;512.00;2380.80;;;;;;5033210;28;20100;-78
2022/09/01 04:28:49;;;;;;;32.50;24.95;;;487.30;2380.80;;;;;;5032152;28;20029;-78
2022/09/01 04:31:20;;;;;;;35.00;25.42;;;512.00;2380.80;;;;;;5067038;28;20029;-79
2022/09/01 04:33:48;;;;;;;36.10;26.73;;;512.20;2380.80;;;;;;5069064;28;20368;-78
2022/09/01 04:36:26;;;;;;;35.80;26.65;;;512.20;2380.80;;;;;;5035979;28;20367;-78
2022/09/01 04:39:00;;;;;;;32.08;25.98;;;512.20;2380.80;;;;;;5038734;28;20037;-77
2022/09/01 04:41:30;;;;;;;32.67;26.10;;;512.20;2380.80;;;;;;5039901;28;20029;-76
2022/09/01 04:43:58;;;;;;;32.30;26.80;;;512.30;2380.80;;;;;;5045566;28;20033;-78
2022/09/01 04:46:27;;;;;;;30.38;25.98;;;512.00;2380.80;;;;;;5037307;28;20082;-77
2022/09/01 04:48:54;;;;;;;34.53;26.80;;;512.20;2380.80;;;;;;5070817;28;20446;-76
2022/09/01 04:51:21;;;;;;;38.22;29.10;;;512.20;2380.80;;;;;;5066841;28;20037;-78
2022/09/01 04:53:50;;;;;;;39.50;28.38;;;512.30;2380.80;;;;;;5041421;28;20029;-76
2022/09/01 04:56:21;;;;;;;38.72;28.15;;;512.10;2380.80;;;;;;5038454;28;20033;-79
2022/09/01 04:58:49;;;;;;;45.47;32.55;;;512.30;2380.80;;;;;;5036239;28;20394;-76
2022/09/01 05:01:16;;;;;;;45.28;30.92;;;512.10;2380.80;;;;;;5046441;28;20032;-76
2022/09/01 05:03:42;;;;;;;45.33;32.55;;;487.30;2048.00;;;;;;5053835;28;20115;-76
2022/09/01 05:06:19;;;;;;;42.88;31.30;;;487.30;2380.80;;;;;;5046568;28;20029;-76
2022/09/01 05:08:45;;;;;;;50.88;36.03;;;512.00;2380.80;;;;;;5067738;28;20472;-78
2022/09/01 05:11:15;;;;;;;48.88;35.40;;;512.20;2380.80;;;;;;5067384;28;20506;-78
2022/09/01 05:13:46;;;;;;;56.45;35.60;;;512.30;2380.80;;;;;;5037356;28;20136;-77
2022/09/01 05:16:15;;;;;;;47.00;34.58;;;512.20;2380.80;;;;;;5043667;28;20079;-78
2022/09/01 05:18:47;;;;;;;48.03;33.92;;;512.20;2380.80;;;;;;5036350;28;20053;-78
2022/09/01 05:21:17;;;;;;;43.03;31.45;;;512.30;2380.80;;;;;;5051264;28;20029;-77
2022/09/01 05:23:45;;;;;;;41.38;30.77;;;512.60;2380.80;;;;;;5038930;28;20028;-77
2022/09/01 05:26:16;;;;;;;37.78;28.58;;;512.60;2380.80;;;;;;5041270;28;20037;-79
2022/09/01 05:28:55;;;;;;;39.65;30.00;;;512.70;2380.80;;;;;;5076883;28;20049;-78
2022/09/01 05:31:23;;;;;;;41.50;30.75;;;512.60;2380.80;;;;;;5037819;28;20096;-78
2022/09/01 05:33:50;;;;;;;43.55;28.80;;;512.70;2380.80;;;;;;5080444;28;20037;-76
2022/09/01 05:36:19;;;;;;;35.90;29.05;;;512.80;2380.80;;;;;;5055333;28;20073;-78
2022/09/01 05:38:46;;;;;;;34.67;28.02;;;512.90;2380.80;;;;;;5046652;28;20041;-78
2022/09/01 05:41:14;;;;;;;36.08;28.08;;;512.90;2380.80;;;;;;5066543;28;20030;-77
2022/09/01 05:43:47;;;;;;;35.72;28.25;;;512.60;2380.80;;;;;;5036673;28;20033;-78
2022/09/01 05:46:17;;;;;;;37.58;29.77;;;512.40;2380.80;;;;;;5036172;28;20029;-78
2022/09/01 05:48:44;;;;;;;39.17;30.38;;;512.80;2380.80;;;;;;5042340;28;20120;-79
2022/09/01 05:51:18;;;;;;;40.92;28.17;;;512.80;2380.80;;;;;;5041082;28;20080;-79
2022/09/01 05:53:46;;;;;;;35.70;29.35;;;537.60;2406.40;;;;;;5072391;28;20037;-78
2022/09/01 05:56:13;;;;;;;41.22;29.70;;;537.70;2406.40;;;;;;5069133;28;20032;-78
2022/09/01 05:58:43;;;;;;;36.00;29.27;;;537.90;2406.40;;;;;;5069620;28;20029;-79
2022/09/01 06:01:12;;;;;;;40.05;28.05;;;537.90;2406.40;;;;;;5068094;28;20028;-78
2022/09/01 06:03:39;;;;;;;36.65;29.20;;;538.00;2406.40;;;;;;5037055;28;20553;-78
2022/09/01 06:06:08;;;;;;;46.50;37.00;;;537.90;2406.40;;;;;;5036084;28;20475;-77
2022/09/01 06:08:35;;;;;;;39.17;33.30;;;537.60;2406.40;;;;;;5068752;28;20494;-78
2022/09/01 06:11:11;;;;;;;42.42;32.67;;;538.00;2406.40;;;;;;5071726;28;20088;-77
2022/09/01 06:13:40;;;;;;;33.60;29.98;;;537.70;2406.40;;;;;;5069904;28;20398;-78
2022/09/01 06:16:08;;;;;;;39.13;31.45;;;538.00;2406.40;;;;;;5066875;28;20037;-79
2022/09/01 06:18:35;;;;;;;31.80;28.48;;;537.90;2406.40;;;;;;5038459;28;20030;-78
2022/09/01 06:21:03;;;;;;;34.78;28.23;;;538.00;2406.40;;;;;;5035359;28;20112;-78
2022/09/01 06:23:30;;;;;;;31.38;27.98;;;538.20;2406.40;;;;;;5033027;28;20029;-78
2022/09/01 06:25:57;;;;;;;38.22;28.85;;;538.20;2406.40;;;;;;5035251;28;20025;-77
2022/09/01 06:28:23;;;;;;;32.00;27.45;;;538.40;2406.40;;;;;;5068646;28;20033;-78
2022/09/01 06:30:50;;;;;;;38.70;29.73;;;538.50;2406.40;;;;;;5067769;28;20029;-78
2022/09/01 06:33:16;;;;;;;38.20;29.45;;;538.50;2406.40;;;;;;5070301;28;20467;-78
2022/09/01 06:35:45;;;;;;;34.35;28.15;;;563.20;2432.00;;;;;;5033782;28;20175;-78
2022/09/01 06:38:13;;;;;;;33.70;26.77;;;538.30;2406.40;;;;;;5036375;28;20382;-78
2022/09/01 06:40:40;;;;;;;33.15;27.42;;;538.10;2406.40;;;;;;5039189;28;20026;-78
2022/09/01 06:43:07;;;;;;;32.80;24.50;;;538.30;2406.40;;;;;;5039084;28;20039;-79
2022/09/01 06:45:40;;;;;;;26.75;23.85;;;538.30;2406.40;;;;;;5035048;28;20053;-78
2022/09/01 06:48:07;;;;;;;29.50;23.77;;;563.20;2432.00;;;;;;5032999;28;20452;-79
2022/09/01 06:50:33;;;;;;;25.23;22.55;;;563.30;2432.00;;;;;;5044843;28;20530;-79
2022/09/01 06:53:09;;;;;;;26.92;23.17;;;563.40;2432.00;;;;;;5038338;28;20044;-79
2022/09/01 06:55:37;;;;;;;27.08;22.77;;;563.30;2432.00;;;;;;5068937;28;20021;-78
2022/09/01 06:58:10;;;;;;;26.98;22.27;;;563.40;2432.00;;;;;;5032784;28;20045;-77
2022/09/01 07:00:40;;;;;;;26.95;21.95;;;563.40;2432.00;;;;;;5070022;28;20064;-78
2022/09/01 07:03:12;;;;;;;24.48;21.50;;;563.60;2432.00;;;;;;5066011;28;20554;-77
2022/09/01 07:05:46;;;;;;;25.92;23.35;;;563.70;2432.00;;;;;;5034746;28;20032;-77
2022/09/01 07:08:20;;;;;;;27.77;23.67;;;563.60;2432.00;;;;;;5036973;28;20040;-77
2022/09/01 07:10:49;;;;;;;27.77;23.55;;;563.70;2432.00;;;;;;5035266;28;20059;-77
2022/09/01 07:13:22;;;;;;;28.95;24.75;;;563.80;2432.00;;;;;;5067584;28;20041;-78
2022/09/01 07:15:52;;;;;;;26.85;24.08;;;563.80;2432.00;;;;;;5034785;28;20421;-79
2022/09/01 07:18:21;;;;;;;28.00;24.65;;;564.00;2432.00;;;;;;5037635;28;20498;-79
2022/09/01 07:20:48;;;;;;;27.13;24.10;;;563.80;2432.00;;;;;;5066355;28;20034;-79
2022/09/01 07:23:19;;;;;;;28.90;25.70;;;563.80;2432.00;;;;;;5033055;28;20034;-78
2022/09/01 07:25:47;;;;;;;29.88;24.38;;;563.80;2432.00;;;;;;5036145;28;20109;-79
2022/09/01 07:28:14;;;;;;;26.15;23.27;;;564.10;2432.00;;;;;;5035571;28;20385;-79
2022/09/01 07:30:48;;;;;;;26.92;23.45;;;564.10;2432.00;;;;;;5037231;28;20021;-81
2022/09/01 07:33:15;;;;;;;27.85;23.73;;;564.10;2432.00;;;;;;5071026;28;20029;-78
2022/09/01 07:35:41;;;;;;;26.50;22.67;;;564.10;2432.00;;;;;;5065314;28;20053;-77
2022/09/01 07:38:08;;;;;;;24.52;21.90;;;588.90;2432.00;;;;;;5033317;28;20026;-80
2022/09/01 07:40:39;;;;;;;28.20;22.92;;;588.90;2432.00;;;;;;5035877;28;20471;-79
2022/09/01 07:43:15;;;;;;;26.02;21.13;;;588.90;2432.00;;;;;;5044893;28;20386;-80
2022/09/01 07:45:45;;;;;;;22.48;20.20;;;564.10;2432.00;;;;;;5041320;28;20029;-81
2022/09/01 07:48:11;;;;;;;22.42;20.20;;;588.80;2432.00;;;;;;5047326;28;20506;-79
2022/09/01 07:50:46;;;;;;;21.65;19.35;;;588.90;2432.00;;;;;;5032276;28;20470;-79
2022/09/01 07:53:26;;;;;;;21.92;19.58;;;589.20;2432.00;;;;;;5033875;28;20120;-78
2022/09/01 07:55:55;;;;;;;21.63;18.63;;;589.40;2432.00;;;;;;5033414;28;20120;-82
2022/09/01 07:58:23;;;;;;;22.42;18.73;;;589.50;2432.00;;;;;;5033850;28;20292;-80
2022/09/01 08:00:50;;;;;;;24.17;18.75;;;589.40;2432.00;;;;;;5065361;28;20033;-79
2022/09/01 08:03:18;;;;;;;19.52;17.45;;;589.50;2432.00;;;;;;5070562;28;20056;-80
2022/09/01 08:05:46;;;;;;;25.50;19.23;;;614.40;2432.00;;;;;;5036764;28;20025;-82
2022/09/01 08:08:12;;;;;;;23.00;20.25;;;614.40;2432.00;;;;;;5033858;28;20486;-80
2022/09/01 08:10:40;;;;;;;23.50;20.02;;;614.40;2432.00;;;;;;5033236;28;20055;-81
2022/09/01 08:13:07;;;;;;;20.90;18.38;;;614.60;2432.00;;;;;;5065261;28;20107;-79
2022/09/01 08:15:33;;;;;;;23.15;18.40;;;614.80;2432.00;;;;;;5068412;28;20064;-83
2022/09/01 08:17:59;;;;;;;19.75;17.25;;;615.00;2432.00;;;;;;5041173;28;20044;-84
2022/09/01 08:20:25;;;;;;;21.23;17.98;;;614.80;2432.00;;;;;;5039586;28;20147;-82
2022/09/01 08:22:51;;;;;;;19.42;16.23;;;614.80;2432.00;;;;;;5077816;28;20041;-84
2022/09/01 08:25:17;;;;;;;21.60;17.42;;;614.90;2432.00;;;;;;5040123;28;20444;-82
2022/09/01 08:27:42;;;;;;;20.10;17.20;;;615.20;2432.00;;;;;;5074744;28;20036;-85
2022/09/01 08:30:13;;;;;;;20.55;16.27;;;640.10;2432.00;;;;;;5041536;28;20030;-83
2022/09/01 08:32:41;;;;;;;17.13;15.32;;;640.80;2432.00;;;;;;5032262;28;20029;-82
2022/09/01 08:35:09;;;;;;;19.45;16.65;;;640.40;2432.00;;;;;;5069253;28;20501;-82
2022/09/01 08:37:35;;;;;;;18.42;15.90;;;640.60;2432.00;;;;;;5072214;28;20151;-83
2022/09/01 08:40:03;;;;;;;18.38;15.88;;;640.60;2432.00;;;;;;5040386;28;20108;-79
2022/09/01 08:43:13;;;;;;;17.92;15.85;;;640.90;2432.00;;;;;;5039220;28;20466;-82
2022/09/01 08:45:55;;;;;;;17.77;15.88;;;665.60;2432.00;;;;;;5033581;28;20033;-82
2022/09/01 08:49:08;;;;;;;18.92;15.95;;;665.70;2432.00;;;;;;5043103;28;20029;-80
2022/09/01 08:51:52;;;;;;;20.05;16.67;;;665.70;2432.00;;;;;;5040923;28;20099;-79
2022/09/01 08:54:25;;;;;;;18.70;15.57;;;665.70;2432.00;;;;;;5038737;28;20163;-84
2022/09/01 08:56:58;;;;;;;17.75;15.48;;;640.90;2432.00;;;;;;5038389;28;20379;-84
2022/09/01 08:59:25;;;;;;;15.93;14.32;;;665.70;2432.00;;;;;;5032246;28;20025;-83
2022/09/01 09:02:06;;;;;;;18.80;14.77;;;665.90;2432.00;;;;;;5037729;28;20060;-80
2022/09/01 09:04:51;;;;;;;16.05;14.43;;;666.10;2432.00;;;;;;5044357;28;20037;-83
2022/09/01 09:07:40;;;;;;;15.98;14.27;;;666.10;2432.00;;;;;;5042134;28;20086;-83
2022/09/01 09:10:10;;;;;;;17.30;13.38;;;666.20;2432.00;;;;;;5038540;28;20048;-80
2022/09/01 09:12:50;;;;;;;15.85;14.27;;;666.30;2432.00;;;;;;5034813;28;20031;-81
2022/09/01 09:15:38;;;;;;;18.05;16.08;;;666.30;2432.00;;;;;;5043078;28;20471;-81
2022/09/01 09:18:43;;;;;;;14.77;13.27;;;666.50;2432.00;;;;;;5043309;28;20099;-81
2022/09/01 09:21:34;;;;;;;16.33;13.02;;;666.40;2432.00;;;;;;5039053;28;20687;-80
2022/09/01 09:24:06;;;;;;;18.42;15.43;;;666.50;2432.00;;;;;;5042207;28;20403;-80
2022/09/01 09:26:31;;;;;;;;;;;666.40;2432.00;;;;;;5041750;28;20032;-82
2022/09/01 09:28:57;;;;;;;13.85;12.45;;;691.30;2432.00;;;;;;5040872;28;19909;-82
2022/09/01 09:31:44;;;;;;;16.58;12.82;;;691.20;2432.00;;;;;;5041146;28;20072;-81
2022/09/01 09:34:33;;;;;;;18.05;12.80;;;691.40;2432.00;;;;;;5040045;28;20040;-80
2022/09/01 09:37:25;;;;;;;15.80;12.63;;;691.40;2432.00;;;;;;5044635;28;20053;-80
2022/09/01 09:40:04;;;;;;;14.02;11.23;;;691.70;2432.00;;;;;;5039502;28;20120;-81
2022/09/01 09:42:30;;;;;;;13.20;11.25;;;691.70;2432.00;;;;;;5044943;28;20082;-80
2022/09/01 09:44:57;;;;;;;12.93;11.60;;;691.60;2432.00;;;;;;5072711;28;20479;-79
2022/09/01 09:47:39;;;;;;;14.90;10.63;;;691.90;2432.00;;;;;;5043418;28;20031;-80
2022/09/01 09:50:28;;;;;;;13.10;11.48;;;691.90;2432.00;;;;;;5049631;28;20021;-82
2022/09/01 09:53:13;;;;;;;13.57;10.73;;;691.90;2432.00;;;;;;5043975;28;20128;-82
2022/09/01 09:55:59;;;;;;;13.98;11.88;;;716.80;2432.00;;;;;;5043973;28;20032;-78
2022/09/01 09:58:36;;;;;;;13.15;11.52;;;717.00;2432.00;;;;;;5045824;28;20036;-82
2022/09/01 10:01:25;;;;;;;15.13;11.68;;;716.90;2432.00;;;;;;5037924;28;20030;-80
2022/09/01 10:03:58;;;;;;;13.43;11.90;;;717.10;2432.00;;;;;;5038519;28;20132;-82
2022/09/01 10:06:40;;;;;;;13.15;10.07;;;717.20;2432.00;;;;;;5041391;28;20022;-83
2022/09/01 10:09:26;;;;;;;13.77;9.45;;;717.50;2432.00;;;;;;5045448;28;20032;-81
2022/09/01 10:11:56;;;;;;;11.73;10.23;;;717.70;2432.00;;;;;;5045790;28;20029;-80
2022/09/01 10:14:29;;;;;;;16.67;10.20;;;742.50;2432.00;;;;;;5041740;28;20033;-83
2022/09/01 10:17:08;;;;;;;13.95;11.02;;;742.50;2432.00;;;;;;5042017;28;20029;-81
2022/09/01 10:19:39;;;;;;;13.43;10.38;;;742.80;2432.00;;;;;;5041708;28;20029;-81
2022/09/01 10:22:06;;;;;;;12.30;9.83;;;743.00;2432.00;;;;;;5045023;28;20111;-83
2022/09/01 10:24:37;;;;;;;13.35;10.15;;;743.10;2432.00;;;;;;5043914;28;20064;-83
2022/09/01 10:27:15;;;;;;;11.00;9.73;;;743.10;2432.00;;;;;;5068991;28;20120;-81
2022/09/01 10:29:59;;;;;;;14.43;11.55;;;743.00;2432.00;;;;;;5037122;28;20037;-81
2022/09/01 10:32:30;;;;;;;13.25;11.95;;;743.00;2432.00;;;;;;5039634;28;20498;-81
2022/09/01 10:34:57;;;;;;;12.35;11.00;;;743.10;2432.00;;;;;;5043266;28;20040;-84
2022/09/01 10:37:23;;;;;;;11.35;9.55;;;743.30;2432.00;;;;;;5048660;28;20049;-82
2022/09/01 10:40:09;;;;;;;11.75;8.00;;;743.30;2432.00;;;;;;5053537;28;20029;-82
2022/09/01 10:42:35;;;;;;;12.32;9.35;;;;;;;;;;5037254;28;20495;-81
2022/09/01 10:45:02;;;;;;;12.02;9.57;;;;;;;;;;5046781;28;20033;-83
2022/09/01 10:47:36;;;;;;;13.77;9.20;;;768.30;2406.40;;;;;;5040847;28;20039;-84
2022/09/01 10:50:05;;;;;;;14.27;12.00;;;768.20;2406.40;;;;;;5039997;28;20025;-84
2022/09/01 10:52:40;;;;;;;12.45;9.70;;;768.40;2406.40;;;;;;5044830;28;20091;-83
2022/09/01 10:55:18;;;;;;;14.80;10.52;;;768.20;2406.40;;;;;;5044105;28;20168;-82
2022/09/01 10:57:51;;;;;;;17.42;13.93;;;768.60;2406.40;;;;;;5044279;28;20025;-83
2022/09/01 11:00:22;;;;;;;13.27;9.65;;;768.90;2304.00;;;;;;5040009;28;20112;-83
2022/09/01 11:03:10;;;;;;;11.95;8.60;;;793.70;2278.40;;;;;;5041343;28;20126;-82
2022/09/01 11:05:58;;;;;;;15.55;9.40;;;794.10;2201.60;;;;;;5044906;28;20029;-85
2022/09/01 11:08:27;;;;;;;9.38;8.07;;;794.40;2176.00;;;;;;5041735;28;20387;-83
2022/09/01 11:11:27;;;;;;;9.68;7.38;;;819.20;2150.40;;;;;;5037387;28;20021;-83
2022/09/01 11:14:00;;;;;;;12.68;8.32;;;819.20;2150.40;;;;;;5038716;28;20036;-83
2022/09/01 11:16:31;;;;;;;11.05;6.90;;;819.50;2099.20;;;;;;5047611;28;20036;-82
2022/09/01 11:19:36;;;;;;;8.35;7.50;;;819.60;2099.20;;;;;;5048787;28;20017;-83
2022/09/01 11:22:25;;;;;;;9.77;7.72;;;819.60;2048.00;;;;;;5046186;28;20385;-83
2022/09/01 11:25:09;;;;;;;11.95;7.50;;;819.70;2099.20;;;;;;5038182;28;20044;-85
2022/09/01 11:27:47;;;;;;;9.25;7.40;;;820.10;2099.20;;;;;;5041292;28;20112;-83
2022/09/01 11:30:22;;;;;;;9.05;7.43;;;820.10;2099.20;;;;;;5038883;28;20034;-84
2022/09/01 11:32:58;;;;;;;9.88;6.95;;;820.10;2073.60;;;;;;5038669;28;20071;-81
2022/09/01 11:35:27;;;;;;;10.10;7.57;;;844.90;2048.00;;;;;;5035420;28;20043;-80
2022/09/01 11:38:00;;;;;;;10.07;8.35;;;820.10;2048.00;;;;;;5056093;28;20026;-82
2022/09/01 11:40:30;;;;;;;9.63;7.95;;;819.60;2048.00;;;;;;5037632;28;20410;-81
2022/09/01 11:42:57;;;;;;;10.50;7.57;;;819.70;2022.40;;;;;;5041753;28;20034;-83
2022/09/01 11:45:31;;;;;;;8.63;7.00;;;844.80;2048.00;;;;;;5039348;28;20083;-82
2022/09/01 11:48:09;;;;;;;10.27;8.32;;;845.20;2022.40;;;;;;5043160;28;20108;-82
2022/09/01 11:50:38;;;;;;;12.02;7.82;;;845.40;1971.20;;;;;;5039615;28;20075;-82
2022/09/01 11:53:07;;;;;;;10.23;7.03;;;845.60;1971.20;;;;;;5038940;28;20051;-81
2022/09/01 11:55:33;;;;;;;10.43;6.68;;;845.60;1868.80;;;;;;5033959;28;20462;-81
2022/09/01 11:57:59;;;;;;;13.27;8.93;;;870.50;1894.40;;;;;;5037394;28;20052;-81
2022/09/01 12:00:31;;;;;;;11.00;7.28;;;870.60;1868.80;;;;;;5037097;28;20025;-81
2022/09/01 12:02:58;;;;;;;11.15;7.40;;;870.70;1894.40;;;;;;5048271;28;20040;-82
2022/09/01 12:05:33;;;;;;;9.57;6.68;;;870.70;1843.20;;;;;;5039539;28;20443;-80
2022/09/01 12:08:02;;;;;;;10.32;7.40;;;870.90;1817.60;;;;;;5039747;28;20048;-79
2022/09/01 12:10:37;;;;;;;11.05;9.93;;;870.90;1843.20;;;;;;5044062;28;20471;-80
2022/09/01 12:13:16;;;;;;;8.85;7.45;;;870.80;1868.80;;;;;;5036063;28;20516;-81
2022/09/01 12:15:42;;;;;;;10.15;6.60;;;871.10;1843.20;;;;;;5041399;28;20478;-81
2022/09/01 12:18:20;;;;;;;11.25;8.20;;;870.90;1817.60;;;;;;5040878;28;20037;-81
2022/09/01 12:20:50;;;;;;;8.98;7.72;;;870.90;1843.20;;;;;;5037160;28;20021;-80
2022/09/01 12:23:26;;;;;;;11.18;7.50;;;870.70;1868.80;;;;;;5073641;28;20075;-81
2022/09/01 12:25:56;;;;;;;12.77;9.95;;;870.70;1920.00;;;;;;5036655;28;20486;-82
2022/09/01 12:28:25;;;;;;;11.13;8.38;;;870.70;1945.60;;;;;;5045543;28;20036;-82
2022/09/01 12:30:52;;;;;;;12.25;8.48;;;870.70;1945.60;;;;;;5040698;28;20059;-82
2022/09/01 12:33:19;;;;;;;7.53;6.50;;;870.50;1945.60;;;;;;5031822;28;20068;-82
2022/09/01 12:35:45;;;;;;;8.02;6.90;;;845.70;1945.60;;;;;;5069191;28;20052;-82